Stations météo

réclame
Mon MeteoGroup
Brocken, Allemagne (10453): Température de l'air & dewpoint: 14.11.2017 01:00:00 - 20.11.2017 01:00:00 (CET)Brocken, Allemagne (10453): Température de l'air 5cm: 14.11.2017 01:00:00 - 20.11.2017 01:00:00 (CET)Brocken, Allemagne (10453): Vitesse du vent & gusts: 14.11.2017 01:00:00 - 20.11.2017 01:00:00 (CET)Brocken, Allemagne (10453): Direction du vent: 14.11.2017 01:00:00 - 20.11.2017 01:00:00 (CET)Brocken, Allemagne (10453): visibility: 14.11.2017 01:00:00 - 20.11.2017 01:00:00 (CET)Brocken, Allemagne (10453): Ensoleillement: 14.11.2017 01:00:00 - 20.11.2017 01:00:00 (CET)
Date & Time tt [°C] td [°C] tt 5cm [°C] ff [km/h] ff [knt] fx [km/h] fx [knt] dd vv [km] sd [min]
20.11.2017 01:00:00 -2,2 -2,3 -2,0 45 25 71 38 NW - 0
20.11.2017 00:00:00 -2,2 -2,3 -2,1 46 25 73 40 WNW - 0
19.11.2017 23:00:00 -2,1 -2,3 -2,0 50 27 75 40 NW 0,1 0
19.11.2017 22:00:00 -2,3 -2,5 -2,1 48 26 72 39 WNW 0,1 0
19.11.2017 21:00:00 -2,1 -2,3 -2,0 51 28 80 43 NW 0,1 0
19.11.2017 20:00:00 -1,9 -2,1 -1,8 56 30 90 49 WNW 0,1 0
19.11.2017 19:00:00 -1,8 -1,9 -1,6 61 33 86 47 WNW - 0
19.11.2017 18:00:00 -1,8 -2,0 -1,6 57 31 83 45 WNW - 0
19.11.2017 17:00:00 -1,7 -1,8 -1,6 69 37 91 49 WNW - 0
19.11.2017 16:00:00 -1,8 -2,0 -1,6 58 32 98 53 WNW - 0
19.11.2017 15:00:00 -1,7 -1,8 -1,6 63 34 85 46 W - 0
19.11.2017 14:00:00 -1,9 -2,1 -1,7 62 34 90 49 W - 0
19.11.2017 13:00:00 -2,2 -2,4 -1,9 62 33 80 43 W - 0
19.11.2017 12:00:00 -2,4 -2,6 -2,3 57 31 86 47 W - 0
19.11.2017 11:00:00 -2,4 -2,6 -2,3 66 36 90 49 W - 0
19.11.2017 10:00:00 -2,7 -2,9 -2,4 68 37 89 48 W - 0
19.11.2017 09:00:00 -2,8 -3,0 -2,6 68 37 90 49 W - 0
19.11.2017 08:00:00 -3,0 -3,2 -2,8 62 34 82 44 W - 0
19.11.2017 07:00:00 -3,1 -3,3 -3,0 61 33 84 45 W - 0
19.11.2017 06:00:00 -3,4 -3,7 -3,2 68 37 87 47 W - 0
19.11.2017 05:00:00 -3,4 -3,7 -3,3 64 35 87 47 W - 0
19.11.2017 04:00:00 -3,3 -3,6 -3,2 61 33 81 44 W - 0
19.11.2017 03:00:00 -3,5 -3,8 -3,4 55 30 80 43 W - 0
19.11.2017 02:00:00 -3,6 -3,9 -3,4 51 28 76 41 W - 0
19.11.2017 01:00:00 -3,6 -3,9 -3,4 49 27 75 41 W - 0
19.11.2017 00:00:00 -3,4 -3,7 -3,2 53 29 74 40 W - 0
18.11.2017 23:00:00 -3,3 -3,6 -3,1 52 28 72 39 W - 0
18.11.2017 22:00:00 -3,3 -3,5 -3,1 57 31 71 39 W - 0
18.11.2017 21:00:00 -3,2 -3,4 -2,9 48 26 67 36 W - 0
18.11.2017 20:00:00 -3,3 -3,5 -3,1 44 24 58 31 W - 0
18.11.2017 19:00:00 -3,1 -3,2 -2,9 41 22 59 32 W - 0
18.11.2017 18:00:00 -3,2 -3,4 -3,1 42 23 77 42 WNW - 0
18.11.2017 17:00:00 -2,9 -3,0 -2,8 61 33 84 46 WSW - 0
18.11.2017 16:00:00 -3,1 -3,2 -2,9 67 36 103 55 WSW - 0
18.11.2017 15:00:00 -3,2 -3,4 -2,9 71 39 104 56 WSW - 0
18.11.2017 14:00:00 -3,3 -3,6 -2,9 77 41 100 54 WSW - 0
18.11.2017 13:00:00 -3,5 -3,7 -3,2 81 44 106 57 W - 0
18.11.2017 12:00:00 -3,6 -3,9 -3,2 81 44 106 57 WSW 0,1 0
18.11.2017 11:00:00 -3,6 -3,9 -3,2 77 42 99 53 WSW 0,1 0
18.11.2017 10:00:00 -3,6 -3,9 -3,3 69 38 92 50 WSW 1,5 0
18.11.2017 09:00:00 -3,7 -4,0 -3,3 70 38 84 46 WSW 0,4 0
18.11.2017 08:00:00 -3,7 -3,9 -3,4 62 33 79 42 WSW 0,1 0
18.11.2017 07:00:00 -3,6 -3,9 -3,3 61 33 77 41 WSW 0,2 0
18.11.2017 06:00:00 -3,3 -3,5 -2,9 58 32 71 39 WSW 15 0
18.11.2017 05:00:00 -3,4 -3,7 -3,4 53 28 66 35 W 20 0
18.11.2017 04:00:00 -3,2 -3,7 -3,0 47 25 66 35 W 40 0
18.11.2017 03:00:00 -3,0 -3,2 -3,0 52 28 63 34 W 40 0
18.11.2017 02:00:00 -3,1 -3,3 -3,2 50 27 59 32 W 40 0
18.11.2017 01:00:00 -3,2 -3,4 -3,7 42 23 50 27 W 50 0
18.11.2017 00:00:00 -2,8 -2,9 -2,9 41 22 48 26 W 0,2 0
17.11.2017 23:00:00 -2,9 -3,3 -3,6 38 21 46 25 W 50 0
17.11.2017 22:00:00 -2,5 -2,6 -2,6 41 22 45 24 W 0,1 0
17.11.2017 21:00:00 -2,2 -2,2 -2,0 30 16 36 19 W 0,2 0
17.11.2017 20:00:00 -2,3 -2,4 -2,6 32 17 35 19 W 50 0
17.11.2017 19:00:00 -2,3 -2,5 -2,7 22 12 24 13 W 40 0
17.11.2017 18:00:00 -2,3 -2,8 -3,8 18 10 21 12 W 30 0
17.11.2017 17:00:00 -1,8 -2,5 -2,7 15 8 18 10 WNW 30 12
17.11.2017 16:00:00 -1,3 -2,5 -2,5 10 5 19 11 WNW 35 13
17.11.2017 15:00:00 -0,1 -2,1 -0,3 13 7 21 11 WNW 30 30
17.11.2017 14:00:00 -0,7 -2,3 -0,1 16 9 29 16 NNW 23 49
17.11.2017 13:00:00 -0,2 -1,3 0,8 24 13 35 19 NNW 12 53
17.11.2017 12:00:00 -0,5 -1,6 2,2 24 13 40 21 N 20 53
17.11.2017 11:00:00 -0,6 -1,1 0,6 17 9 34 18 N 12 42
17.11.2017 10:00:00 -1,1 -1,2 -0,2 20 11 36 19 N 0,6 12
17.11.2017 09:00:00 -0,6 -0,6 -0,1 24 13 39 21 N 0,1 0
17.11.2017 08:00:00 -0,1 -0,1 0,0 22 12 40 22 N - 0
17.11.2017 07:00:00 -0,1 -0,1 0,0 23 12 43 23 N 0,1 0
17.11.2017 06:00:00 -0,1 -0,1 0,0 24 13 48 26 N 0,1 0
17.11.2017 05:00:00 1,0 1,0 0,9 31 17 45 24 NW - 0
17.11.2017 04:00:00 1,3 1,3 1,2 33 18 50 27 WNW - 0
17.11.2017 03:00:00 1,1 1,1 1,0 35 19 54 29 WNW - 0
17.11.2017 02:00:00 1,6 1,6 1,4 35 19 46 25 WNW - 0
17.11.2017 01:00:00 1,3 1,3 1,1 32 18 41 22 WNW - 0
17.11.2017 00:00:00 1,6 1,6 1,3 28 15 39 21 WNW - 0
16.11.2017 23:00:00 1,6 1,6 1,3 34 18 49 26 W - 0
16.11.2017 22:00:00 2,0 2,0 1,6 34 18 45 24 WNW - 0
16.11.2017 21:00:00 1,3 1,3 1,0 37 20 42 23 W - 0
16.11.2017 20:00:00 2,5 1,4 1,0 26 14 31 17 W 80 0
16.11.2017 19:00:00 2,9 1,0 1,4 30 16 36 20 W 80 0
16.11.2017 18:00:00 2,6 -0,4 0,9 34 18 40 21 W 80 0
16.11.2017 17:00:00 2,7 -1,6 0,8 28 15 32 18 W 82 23
16.11.2017 16:00:00 3,3 -0,8 1,2 30 16 34 19 W 82 60
16.11.2017 15:00:00 3,7 0,6 3,0 27 15 32 17 WSW 82 39
16.11.2017 14:00:00 3,3 -0,2 2,2 27 14 32 17 SW 82 14
16.11.2017 13:00:00 3,1 0,4 2,4 28 15 31 17 SW 82 12
16.11.2017 12:00:00 1,5 1,2 1,5 26 14 32 17 SW 82 0
16.11.2017 11:00:00 1,1 1,1 1,1 26 14 35 19 SSW 0,3 0
16.11.2017 10:00:00 0,6 0,6 0,7 28 15 34 19 SSW 0,1 1
16.11.2017 09:00:00 0,9 0,9 0,7 24 13 31 17 SSW 0,1 0
16.11.2017 08:00:00 0,8 0,8 0,5 25 13 33 18 SSW 0,2 0
16.11.2017 07:00:00 3,2 0,5 1,3 25 13 29 16 SW 80 0
16.11.2017 06:00:00 3,2 0,4 1,2 23 12 29 15 SW 80 0
16.11.2017 05:00:00 2,7 0,7 1,0 24 13 29 15 SW 60 0
16.11.2017 04:00:00 2,4 0,6 1,1 25 14 27 15 SSW 60 0
16.11.2017 03:00:00 2,1 0,5 0,9 20 11 29 16 SSW 60 0
16.11.2017 02:00:00 1,1 1,1 0,4 24 13 31 17 S 60 0
16.11.2017 01:00:00 0,6 0,6 0,5 22 12 24 13 SSW 0,1 0
16.11.2017 00:00:00 1,5 1,5 1,1 16 9 25 13 SSE 0,1 0
15.11.2017 23:00:00 2,3 2,3 1,9 16 8 21 12 SSE 0,1 0
15.11.2017 22:00:00 2,6 2,6 1,9 12 6 15 8 ESE 0,1 0
15.11.2017 21:00:00 2,7 2,7 1,9 10 6 15 8 N 0,1 0
15.11.2017 20:00:00 2,8 2,8 1,7 11 6 17 9 NNW 0,1 0
15.11.2017 19:00:00 2,9 2,9 2,2 16 8 22 12 NW 20 0
15.11.2017 18:00:00 2,5 2,5 1,8 20 11 23 12 NW 0,1 0
15.11.2017 17:00:00 2,1 2,1 1,6 21 12 31 17 WNW 1,5 0
15.11.2017 16:00:00 2,1 2,1 1,5 27 15 32 18 W 50 10
15.11.2017 15:00:00 2,5 2,5 1,9 29 16 37 20 W 25 0
15.11.2017 14:00:00 2,1 2,1 1,6 33 18 38 21 W - 0
15.11.2017 13:00:00 2,4 2,4 1,7 32 18 39 21 W - 0
15.11.2017 12:00:00 2,3 2,3 1,8 32 18 45 24 W - 0
15.11.2017 11:00:00 2,2 2,2 1,7 32 17 39 21 W - 0
15.11.2017 10:00:00 2,2 2,2 1,7 27 14 39 21 W - 0
15.11.2017 09:00:00 1,5 1,5 0,9 27 15 36 20 W - 0
15.11.2017 08:00:00 1,7 1,7 1,2 23 12 34 18 W - 0
15.11.2017 07:00:00 1,2 1,2 0,9 26 14 34 18 W - 0
15.11.2017 06:00:00 1,4 1,4 0,9 28 15 33 18 W - 0
15.11.2017 05:00:00 0,8 0,8 0,5 29 15 42 23 W - 0
15.11.2017 04:00:00 0,4 0,4 0,0 31 17 39 21 W - 0
15.11.2017 03:00:00 0,0 0,0 0,0 30 16 39 21 W - 0
15.11.2017 02:00:00 -0,1 -0,1 0,0 27 15 43 23 W - 0
15.11.2017 01:00:00 -0,1 -0,1 0,0 30 16 40 22 W - 0
15.11.2017 00:00:00 -0,1 -0,1 0,0 30 16 41 22 W - 0
14.11.2017 23:00:00 -0,2 -0,2 -0,1 31 17 39 21 W - 0
14.11.2017 22:00:00 -0,5 -0,5 -0,1 27 14 43 23 WSW - 0
14.11.2017 21:00:00 -0,6 -0,6 -0,4 29 16 47 26 WSW - 0
14.11.2017 20:00:00 -0,8 -0,8 -0,7 39 21 57 31 W - 0
14.11.2017 19:00:00 -1,1 -1,1 -1,0 46 25 61 33 W - 0
14.11.2017 18:00:00 -1,7 -2,0 -1,7 44 24 70 38 W 20 0
14.11.2017 17:00:00 -1,9 -2,3 -1,8 50 27 69 38 W 60 0
14.11.2017 16:00:00 -1,3 -1,3 -1,2 54 29 74 40 W - 0
14.11.2017 15:00:00 -1,5 -1,6 -1,2 58 31 73 40 WSW - 0
14.11.2017 14:00:00 -1,3 -1,4 -1,0 55 30 76 41 WSW - 0
14.11.2017 13:00:00 -1,5 -1,6 -1,1 61 33 76 41 WSW - 0
14.11.2017 12:00:00 -1,8 -1,9 -1,4 58 31 77 42 WSW - 0
14.11.2017 11:00:00 -1,9 -2,0 -1,6 55 30 71 38 WSW - 0
14.11.2017 10:00:00 -2,2 -2,4 -1,8 46 25 59 32 WSW - 0
14.11.2017 09:00:00 -2,3 -2,5 -2,1 34 19 52 28 WSW - 0
14.11.2017 08:00:00 -2,4 -2,6 -2,3 40 21 49 26 W - 0
14.11.2017 07:00:00 -2,3 -2,5 -2,3 29 16 37 20 W 0,1 0
14.11.2017 06:00:00 -2,3 -2,6 -2,4 23 13 36 20 W 0,1 0
14.11.2017 05:00:00 -1,6 -1,6 -1,5 26 14 40 22 W - 0
14.11.2017 04:00:00 -1,6 -1,7 -1,5 36 19 48 26 W - 0
14.11.2017 03:00:00 -1,6 -1,7 -1,5 40 22 53 29 W - 0
14.11.2017 02:00:00 -1,5 -1,6 -1,4 39 21 48 26 WNW - 0
14.11.2017 01:00:00 -1,4 -1,5 -1,4 34 18 50 27 WNW - 0

tt = Température de l'air
td = dewpoint
tt 5cm = Température de l'air 5cm
ff = Vitesse du vent
fx = gusts
dd = Direction du vent
vv = visibility
sd = Ensoleillement

stations d'obs. à proximité